Time;durP1;ratioP1;P1;durP2;ratioP2;P2;SDS_P1;SDS_P2;PMS_P1;PMS_P2;Temp;Humidity;BMP_temperature;BMP_pressure;BME280_temperature;BME280_humidity;BME280_pressure;Samples;Min_cycle;Max_cycle;Signal;HPM_P1;HPM_P2
2022/12/17 13:06:06;;;;;;;1.27;0.40;;;;;;;;;;1779901;78;26289;-36
2022/12/17 13:08:34;;;;;;;2.40;0.30;;;;;;;;;;1783743;78;26740;-42
2022/12/17 13:11:12;;;;;;;1.17;0.40;;;;;;;;;;1785473;78;26210;-40
2022/12/17 13:13:54;;;;;;;0.45;0.45;;;;;;;;;;1781509;78;26634;-43
2022/12/17 13:16:25;;;;;;;0.95;0.40;;;;;;;;;;1779033;79;26228;-39
2022/12/17 13:18:54;;;;;;;2.30;0.50;;;;;;;;;;1781309;78;26220;-41
2022/12/17 13:21:26;;;;;;;1.55;0.50;;;;;;;;;;1784933;78;26282;-41
2022/12/17 13:23:53;;;;;;;2.45;0.50;;;;;;;;;;1786870;78;26506;-40
2022/12/17 13:26:24;;;;;;;0.55;0.50;;;;;;;;;;1787006;79;26225;-41
2022/12/17 13:28:56;;;;;;;0.85;0.47;;;;;;;;;;1778690;78;26212;-42
2022/12/17 13:31:28;;;;;;;0.72;0.60;;;;;;;;;;1783287;79;26379;-38
2022/12/17 13:33:59;;;;;;;0.40;0.40;;;;;;;;;;1771886;79;26316;-39
2022/12/17 13:36:31;;;;;;;1.55;0.30;;;;;;;;;;1772360;79;26674;-40
2022/12/17 13:39:05;;;;;;;1.42;0.60;;;;;;;;;;1770917;79;26676;-35
2022/12/17 13:41:33;;;;;;;0.40;0.40;;;;;;;;;;1773793;81;26291;-41
2022/12/17 13:44:19;;;;;;;1.12;0.47;;;;;;;;;;1774328;79;26202;-36
2022/12/17 13:46:47;;;;;;;1.75;0.30;;;;;;;;;;1769657;81;26251;-43
2022/12/17 13:49:16;;;;;;;0.33;0.33;;;;;;;;;;1779677;79;26228;-37
2022/12/17 13:51:43;;;;;;;0.35;0.35;;;;;;;;;;1770546;80;26243;-40
2022/12/17 13:54:18;;;;;;;0.62;0.50;;;;;;;;;;1775850;79;26278;-45
2022/12/17 13:56:45;;;;;;;0.35;0.33;;;;;;;;;;1773960;79;26666;-39
2022/12/17 13:59:17;;;;;;;0.50;0.40;;;;;;;;;;1775138;79;26256;-44
2022/12/17 14:01:49;;;;;;;0.20;0.20;;;;;;;;;;1771310;79;26709;-42
2022/12/17 14:04:23;;;;;;;0.30;0.30;;;;;;;;;;1775067;79;26380;-38
2022/12/17 14:06:53;;;;;;;0.28;0.28;;;;;;;;;;1773407;79;26198;-38
2022/12/17 14:09:21;;;;;;;0.40;0.40;;;;;;;;;;1774989;79;26294;-41
2022/12/17 14:14:39;;;;;;;0.60;0.40;;;;;;;;;;1776564;79;26228;-39
2022/12/17 14:17:06;;;;;;;3.90;0.50;;;;;;;;;;1773873;79;27027;-38
2022/12/17 14:19:34;;;;;;;1.07;0.50;;;;;;;;;;1767835;79;26227;-36
2022/12/17 14:22:01;;;;;;;0.50;0.50;;;;;;;;;;1771256;79;26636;-38
2022/12/17 14:24:28;;;;;;;0.78;0.40;;;;;;;;;;1770020;79;26330;-34
2022/12/17 14:26:59;;;;;;;0.53;0.53;;;;;;;;;;1773654;79;26594;-37
2022/12/17 14:29:28;;;;;;;0.40;0.40;;;;;;;;;;1777057;79;26271;-34
2022/12/17 14:31:57;;;;;;;0.75;0.50;;;;;;;;;;1789688;78;26343;-35
2022/12/17 14:34:24;;;;;;;2.20;0.30;;;;;;;;;;1801957;78;26244;-34
2022/12/17 14:36:56;;;;;;;1.47;0.40;;;;;;;;;;1806041;78;26198;-37
2022/12/17 14:39:25;;;;;;;2.08;0.40;;;;;;;;;;1813409;78;26439;-36
2022/12/17 14:44:43;;;;;;;0.55;0.55;;;;;;;;;;1801324;78;26208;-42
2022/12/17 14:47:14;;;;;;;1.70;0.45;;;;;;;;;;1816349;78;26757;-35
2022/12/17 14:49:58;;;;;;;2.30;0.57;;;;;;;;;;1793929;78;26283;-39
2022/12/17 14:52:27;;;;;;;0.30;0.30;;;;;;;;;;1785337;78;26250;-39
2022/12/17 14:54:54;;;;;;;0.70;0.40;;;;;;;;;;1816783;78;26220;-36
2022/12/17 14:57:22;;;;;;;0.50;0.50;;;;;;;;;;1796355;78;26368;-36
2022/12/17 14:59:51;;;;;;;0.53;0.37;;;;;;;;;;1802744;78;26224;-38
2022/12/17 15:02:24;;;;;;;1.30;0.40;;;;;;;;;;1801036;78;26289;-41
2022/12/17 15:04:58;;;;;;;1.05;0.40;;;;;;;;;;1791614;78;26377;-43
2022/12/17 15:07:26;;;;;;;0.37;0.37;;;;;;;;;;1795188;78;26197;-39
2022/12/17 15:09:54;;;;;;;0.40;0.40;;;;;;;;;;1789827;78;26691;-42
2022/12/17 15:12:22;;;;;;;1.00;0.35;;;;;;;;;;1784812;78;26301;-39
2022/12/17 15:14:49;;;;;;;0.40;0.40;;;;;;;;;;1781722;78;26238;-37
2022/12/17 15:17:17;;;;;;;0.72;0.47;;;;;;;;;;1794186;78;26318;-41
2022/12/17 15:19:44;;;;;;;0.50;0.50;;;;;;;;;;1807892;78;26232;-40
2022/12/17 15:22:16;;;;;;;0.50;0.50;;;;;;;;;;1787028;78;26238;-37
2022/12/17 15:24:44;;;;;;;0.57;0.50;;;;;;;;;;1781255;78;26750;-40
2022/12/17 15:27:12;;;;;;;0.40;0.40;;;;;;;;;;1780803;78;26238;-38
2022/12/17 15:29:39;;;;;;;0.40;0.40;;;;;;;;;;1801735;78;26281;-39
2022/12/17 15:32:07;;;;;;;0.45;0.45;;;;;;;;;;1799915;78;26310;-38
2022/12/17 15:34:34;;;;;;;0.50;0.50;;;;;;;;;;1799931;79;27086;-37
2022/12/17 15:37:01;;;;;;;0.50;0.50;;;;;;;;;;1794423;78;26243;-39
2022/12/17 15:39:29;;;;;;;0.57;0.45;;;;;;;;;;1793903;78;26238;-38
2022/12/17 15:44:41;;;;;;;1.27;0.57;;;;;;;;;;1807546;78;26628;-47
2022/12/17 15:47:08;;;;;;;0.50;0.50;;;;;;;;;;1803153;78;26672;-40
2022/12/17 15:49:35;;;;;;;0.55;0.55;;;;;;;;;;1801006;78;26220;-39
2022/12/17 15:52:03;;;;;;;0.50;0.50;;;;;;;;;;1812735;78;26228;-40
2022/12/17 15:54:30;;;;;;;0.70;0.70;;;;;;;;;;1793529;78;26238;-36
2022/12/17 15:56:57;;;;;;;0.57;0.57;;;;;;;;;;1800078;78;26313;-38
2022/12/17 15:59:24;;;;;;;0.57;0.57;;;;;;;;;;1796478;78;26290;-36
2022/12/17 16:01:52;;;;;;;0.70;0.60;;;;;;;;;;1799577;78;26220;-44
2022/12/17 16:04:19;;;;;;;1.67;0.50;;;;;;;;;;1802103;78;26184;-39
2022/12/17 16:06:46;;;;;;;0.93;0.53;;;;;;;;;;1797671;78;26160;-42
2022/12/17 16:09:13;;;;;;;2.00;0.40;;;;;;;;;;1786644;78;26775;-37
2022/12/17 16:11:41;;;;;;;0.57;0.57;;;;;;;;;;1788766;78;27274;-37
2022/12/17 16:14:08;;;;;;;1.22;0.60;;;;;;;;;;1787179;78;26714;-38
2022/12/17 16:16:35;;;;;;;0.60;0.60;;;;;;;;;;1792558;78;26275;-40
2022/12/17 16:19:03;;;;;;;0.50;0.50;;;;;;;;;;1802899;78;26241;-41
2022/12/17 16:21:30;;;;;;;0.53;0.53;;;;;;;;;;1796145;78;26669;-38
2022/12/17 16:23:57;;;;;;;0.68;0.50;;;;;;;;;;1796298;78;26752;-38
2022/12/17 16:26:24;;;;;;;0.60;0.60;;;;;;;;;;1775547;78;26242;-36
2022/12/17 16:28:52;;;;;;;0.82;0.50;;;;;;;;;;1795574;78;26223;-37
2022/12/17 16:31:19;;;;;;;1.35;0.60;;;;;;;;;;1795349;78;26284;-37
2022/12/17 16:33:47;;;;;;;0.80;0.70;;;;;;;;;;1772648;78;26318;-40
2022/12/17 16:36:15;;;;;;;0.70;0.70;;;;;;;;;;1771358;79;26980;-48
2022/12/17 16:38:46;;;;;;;1.37;0.70;;;;;;;;;;1781779;78;26231;-38
2022/12/17 16:41:14;;;;;;;0.82;0.80;;;;;;;;;;1764277;79;26235;-39
2022/12/17 16:43:42;;;;;;;0.93;0.57;;;;;;;;;;1761911;78;26775;-40
2022/12/17 16:46:29;;;;;;;2.20;0.75;;;;;;;;;;1784022;78;26215;-40
2022/12/17 16:48:57;;;;;;;1.17;0.60;;;;;;;;;;1782344;78;26230;-39
2022/12/17 16:51:26;;;;;;;0.60;0.60;;;;;;;;;;1781448;78;26272;-40
2022/12/17 16:53:53;;;;;;;0.47;0.40;;;;;;;;;;1783096;78;26865;-37
2022/12/17 16:56:22;;;;;;;1.07;0.57;;;;;;;;;;1782704;79;26236;-38
2022/12/17 16:58:49;;;;;;;0.55;0.55;;;;;;;;;;1768814;78;26283;-44
2022/12/17 17:01:20;;;;;;;0.50;0.45;;;;;;;;;;1781473;78;26201;-40
2022/12/17 17:03:48;;;;;;;2.37;0.70;;;;;;;;;;1784112;78;26313;-38
2022/12/17 17:06:16;;;;;;;3.83;0.60;;;;;;;;;;1772635;78;27188;-38
2022/12/17 17:08:44;;;;;;;0.70;0.50;;;;;;;;;;1784928;79;26201;-39
2022/12/17 17:11:12;;;;;;;0.50;0.50;;;;;;;;;;1772239;78;26313;-40
2022/12/17 17:13:40;;;;;;;1.25;0.70;;;;;;;;;;1783385;78;26266;-39
2022/12/17 17:16:07;;;;;;;0.98;0.50;;;;;;;;;;1770018;78;26310;-37
2022/12/17 17:18:35;;;;;;;0.53;0.53;;;;;;;;;;1766423;78;27155;-36
2022/12/17 17:21:13;;;;;;;0.62;0.50;;;;;;;;;;1792341;78;26218;-37
2022/12/17 17:23:40;;;;;;;0.60;0.60;;;;;;;;;;1762612;78;26275;-38
2022/12/17 17:26:08;;;;;;;0.68;0.60;;;;;;;;;;1775861;78;26248;-37
2022/12/17 17:28:35;;;;;;;0.60;0.60;;;;;;;;;;1777435;78;26235;-39
2022/12/17 17:31:03;;;;;;;0.53;0.33;;;;;;;;;;1783569;78;26768;-38
2022/12/17 17:33:34;;;;;;;0.80;0.53;;;;;;;;;;1776704;78;26299;-44
2022/12/17 17:36:03;;;;;;;1.10;0.50;;;;;;;;;;1776450;78;26228;-39
2022/12/17 17:38:32;;;;;;;0.60;0.60;;;;;;;;;;1774656;78;26239;-40
2022/12/17 17:41:00;;;;;;;0.82;0.82;;;;;;;;;;1762776;79;26227;-38
2022/12/17 17:43:27;;;;;;;0.70;0.70;;;;;;;;;;1777897;78;26243;-40
2022/12/17 17:45:57;;;;;;;0.90;0.80;;;;;;;;;;1774583;78;27149;-38
2022/12/17 17:48:25;;;;;;;0.78;0.70;;;;;;;;;;1776222;78;26220;-40
2022/12/17 17:50:59;;;;;;;1.10;0.80;;;;;;;;;;1782009;78;26634;-40
2022/12/17 17:53:26;;;;;;;1.40;0.80;;;;;;;;;;1778738;78;26225;-36
2022/12/17 17:55:54;;;;;;;0.80;0.80;;;;;;;;;;1788550;78;26217;-38
2022/12/17 17:58:22;;;;;;;1.15;0.80;;;;;;;;;;1774892;79;26240;-37
2022/12/17 18:00:49;;;;;;;0.70;0.70;;;;;;;;;;1799050;78;26664;-38
2022/12/17 18:03:16;;;;;;;1.07;1.02;;;;;;;;;;1789618;78;27062;-36
2022/12/17 18:05:43;;;;;;;0.88;0.82;;;;;;;;;;1790547;78;26732;-41
2022/12/17 18:08:11;;;;;;;1.00;1.00;;;;;;;;;;1787666;78;26736;-41
2022/12/17 18:10:38;;;;;;;1.35;1.10;;;;;;;;;;1784560;78;26310;-41
2022/12/17 18:15:51;;;;;;;1.62;1.52;;;;;;;;;;1791327;78;26323;-43
2022/12/17 18:18:18;;;;;;;2.37;1.90;;;;;;;;;;1784965;78;26201;-45
2022/12/17 18:20:45;;;;;;;3.85;2.47;;;;;;;;;;1788629;78;26209;-41
2022/12/17 18:23:12;;;;;;;3.30;2.80;;;;;;;;;;1781272;78;26268;-39
2022/12/17 18:25:40;;;;;;;3.35;3.15;;;;;;;;;;1783970;78;26373;-42
2022/12/17 18:28:07;;;;;;;3.70;3.50;;;;;;;;;;1779462;78;26306;-42
2022/12/17 18:30:36;;;;;;;4.37;4.00;;;;;;;;;;1788212;78;26217;-40
2022/12/17 18:33:03;;;;;;;4.72;4.33;;;;;;;;;;1781531;78;26324;-36
2022/12/17 18:35:30;;;;;;;4.90;4.50;;;;;;;;;;1783187;79;26288;-40
2022/12/17 18:37:57;;;;;;;4.80;4.50;;;;;;;;;;1775635;79;26291;-38
2022/12/17 18:40:25;;;;;;;4.92;4.50;;;;;;;;;;1772738;79;26720;-38
2022/12/17 18:45:37;;;;;;;5.30;4.90;;;;;;;;;;1776988;79;26713;-36
2022/12/17 18:48:07;;;;;;;5.03;4.53;;;;;;;;;;1776040;79;26221;-37
2022/12/17 18:50:34;;;;;;;4.87;4.53;;;;;;;;;;1773771;79;26311;-36
2022/12/17 18:53:02;;;;;;;5.20;4.72;;;;;;;;;;1763591;79;26658;-36
2022/12/17 18:55:29;;;;;;;6.20;5.00;;;;;;;;;;1766097;79;26612;-38
2022/12/17 18:57:56;;;;;;;6.25;4.85;;;;;;;;;;1766780;79;27115;-39
2022/12/17 19:00:23;;;;;;;7.42;4.90;;;;;;;;;;1773203;81;26843;-40
2022/12/17 19:02:51;;;;;;;6.35;4.85;;;;;;;;;;1774273;79;26231;-37
2022/12/17 19:05:18;;;;;;;7.42;4.90;;;;;;;;;;1768448;79;26267;-43
2022/12/17 19:07:45;;;;;;;9.38;5.08;;;;;;;;;;1772513;79;26357;-40
2022/12/17 19:10:12;;;;;;;6.30;4.92;;;;;;;;;;1766417;79;26267;-39
2022/12/17 19:12:40;;;;;;;5.08;4.58;;;;;;;;;;1774359;79;26212;-44
2022/12/17 19:15:07;;;;;;;8.45;4.70;;;;;;;;;;1768920;79;26291;-40
2022/12/17 19:17:34;;;;;;;6.17;4.90;;;;;;;;;;1776059;79;26260;-44
2022/12/17 19:20:02;;;;;;;7.10;4.40;;;;;;;;;;1774834;79;26230;-38
2022/12/17 19:22:29;;;;;;;10.23;4.50;;;;;;;;;;1775001;79;26217;-36
2022/12/17 19:24:56;;;;;;;9.15;4.35;;;;;;;;;;1775391;80;26342;-42
2022/12/17 19:27:24;;;;;;;8.75;4.28;;;;;;;;;;1774969;79;26272;-37
2022/12/17 19:29:53;;;;;;;8.60;4.42;;;;;;;;;;1772565;80;26208;-41
2022/12/17 19:32:20;;;;;;;7.42;4.05;;;;;;;;;;1767690;79;27059;-39
2022/12/17 19:34:47;;;;;;;7.67;4.00;;;;;;;;;;1780156;78;26763;-44
2022/12/17 19:37:14;;;;;;;6.37;3.83;;;;;;;;;;1780961;79;26676;-40
2022/12/17 19:39:42;;;;;;;10.85;3.90;;;;;;;;;;1768289;79;26650;-39
2022/12/17 19:42:23;;;;;;;8.15;4.05;;;;;;;;;;1779255;79;26224;-38
2022/12/17 19:44:38;;;;;;;4.90;3.52;;;;;;;;;;1773719;79;26793;-40
2022/12/17 19:47:05;;;;;;;5.05;3.47;;;;;;;;;;1775795;79;26217;-39
2022/12/17 19:49:34;;;;;;;4.25;3.37;;;;;;;;;;1778175;79;26358;-39
2022/12/17 19:52:01;;;;;;;6.22;3.45;;;;;;;;;;1774682;79;26287;-36
2022/12/17 19:54:28;;;;;;;8.28;3.33;;;;;;;;;;1779957;79;26283;-38
2022/12/17 19:56:55;;;;;;;5.15;2.90;;;;;;;;;;1771625;79;26398;-42
2022/12/17 19:59:23;;;;;;;8.55;2.87;;;;;;;;;;1777277;79;26248;-37
2022/12/17 20:01:50;;;;;;;9.73;2.87;;;;;;;;;;1774620;79;26221;-40
2022/12/17 20:04:17;;;;;;;6.90;2.60;;;;;;;;;;1765354;79;26345;-43
2022/12/17 20:06:45;;;;;;;4.03;2.85;;;;;;;;;;1772920;79;26315;-39
2022/12/17 20:09:12;;;;;;;4.75;2.95;;;;;;;;;;1774108;79;26682;-39
2022/12/17 20:11:40;;;;;;;4.37;2.55;;;;;;;;;;1765549;79;26260;-37
2022/12/17 20:14:08;;;;;;;5.03;2.55;;;;;;;;;;1777287;79;26649;-43
2022/12/17 20:16:37;;;;;;;3.87;2.40;;;;;;;;;;1762978;79;27061;-43
2022/12/17 20:19:06;;;;;;;4.42;2.40;;;;;;;;;;1768941;79;26908;-36
2022/12/17 20:21:33;;;;;;;2.98;1.98;;;;;;;;;;1773737;79;26313;-44
2022/12/17 20:24:00;;;;;;;5.60;2.12;;;;;;;;;;1769475;79;26733;-37
2022/12/17 20:26:30;;;;;;;4.28;2.30;;;;;;;;;;1775180;79;26686;-37
2022/12/17 20:28:58;;;;;;;1.95;1.85;;;;;;;;;;1780648;79;26277;-36
2022/12/17 20:31:26;;;;;;;5.30;2.05;;;;;;;;;;1776917;79;26212;-33
2022/12/17 20:33:53;;;;;;;2.58;1.85;;;;;;;;;;1782229;79;26229;-37
2022/12/17 20:36:21;;;;;;;3.15;1.90;;;;;;;;;;1802757;77;26349;-41
2022/12/17 20:38:48;;;;;;;2.08;1.50;;;;;;;;;;1783971;79;26209;-46
2022/12/17 20:41:17;;;;;;;2.33;1.80;;;;;;;;;;1799311;79;26210;-36
2022/12/17 20:43:44;;;;;;;1.80;1.60;;;;;;;;;;1790198;79;26171;-39
2022/12/17 20:46:12;;;;;;;1.70;1.60;;;;;;;;;;1796585;79;26228;-37
2022/12/17 20:48:41;;;;;;;3.98;1.80;;;;;;;;;;1776966;79;26232;-42
2022/12/17 20:51:13;;;;;;;2.50;1.60;;;;;;;;;;1784107;79;26266;-39
2022/12/17 20:53:40;;;;;;;1.70;1.55;;;;;;;;;;1783063;79;26980;-38
2022/12/17 20:56:09;;;;;;;1.77;1.50;;;;;;;;;;1789391;79;26212;-38
2022/12/17 20:58:37;;;;;;;1.70;1.60;;;;;;;;;;1775788;79;26995;-50
2022/12/17 21:01:06;;;;;;;1.37;1.37;;;;;;;;;;1785508;79;26211;-46
2022/12/17 21:03:33;;;;;;;1.98;1.52;;;;;;;;;;1784540;79;26240;-44
2022/12/17 21:06:08;;;;;;;1.50;1.40;;;;;;;;;;1785286;79;26202;-38
2022/12/17 21:08:35;;;;;;;1.40;1.30;;;;;;;;;;1783819;79;26212;-47
2022/12/17 21:11:03;;;;;;;2.05;1.40;;;;;;;;;;1782145;79;27094;-41
2022/12/17 21:13:30;;;;;;;1.25;1.25;;;;;;;;;;1772393;79;26278;-44
2022/12/17 21:15:59;;;;;;;1.32;1.32;;;;;;;;;;1783338;79;26290;-39
2022/12/17 21:18:27;;;;;;;1.30;1.20;;;;;;;;;;1781712;79;26235;-41
2022/12/17 21:20:58;;;;;;;1.42;1.32;;;;;;;;;;1791233;79;26194;-38
2022/12/17 21:23:26;;;;;;;1.50;1.40;;;;;;;;;;1792863;79;26654;-40
2022/12/17 21:26:06;;;;;;;1.60;1.50;;;;;;;;;;1782324;79;26291;-42
2022/12/17 21:28:34;;;;;;;1.32;1.32;;;;;;;;;;1777714;79;26216;-40
2022/12/17 21:31:02;;;;;;;2.25;1.32;;;;;;;;;;1784330;79;26226;-40
2022/12/17 21:33:30;;;;;;;1.25;1.25;;;;;;;;;;1783038;79;26301;-40
2022/12/17 21:36:01;;;;;;;2.47;1.30;;;;;;;;;;1783473;78;26689;-39
2022/12/17 21:38:28;;;;;;;1.52;1.40;;;;;;;;;;1798480;78;26369;-41
2022/12/17 21:40:56;;;;;;;1.85;1.27;;;;;;;;;;1796094;78;26226;-42
2022/12/17 21:43:23;;;;;;;1.42;1.30;;;;;;;;;;1789760;79;26948;-39
2022/12/17 21:45:52;;;;;;;1.45;1.40;;;;;;;;;;1783387;78;26208;-39
2022/12/17 21:48:19;;;;;;;1.85;1.20;;;;;;;;;;1782835;78;26220;-46
2022/12/17 21:50:46;;;;;;;1.40;1.40;;;;;;;;;;1789107;78;26239;-49
2022/12/17 21:53:14;;;;;;;1.55;1.45;;;;;;;;;;1780259;78;26203;-43
2022/12/17 21:55:41;;;;;;;1.40;1.30;;;;;;;;;;1773362;78;26218;-38
2022/12/17 21:58:08;;;;;;;1.30;1.30;;;;;;;;;;1785458;78;26224;-39
2022/12/17 22:00:36;;;;;;;1.50;1.40;;;;;;;;;;1789400;78;26244;-38
2022/12/17 22:03:03;;;;;;;1.40;1.40;;;;;;;;;;1770676;79;26746;-40
2022/12/17 22:05:30;;;;;;;1.40;1.40;;;;;;;;;;1781592;78;26208;-42
2022/12/17 22:07:58;;;;;;;1.22;1.22;;;;;;;;;;1786414;78;26338;-40
2022/12/17 22:10:26;;;;;;;1.20;1.20;;;;;;;;;;1796804;78;26298;-39
2022/12/17 22:15:39;;;;;;;1.65;1.20;;;;;;;;;;1787060;78;26287;-42
2022/12/17 22:18:06;;;;;;;1.53;1.30;;;;;;;;;;1771739;78;28240;-41
2022/12/17 22:20:33;;;;;;;1.50;1.40;;;;;;;;;;1788644;78;26306;-36
2022/12/17 22:23:01;;;;;;;1.85;1.35;;;;;;;;;;1784020;78;26225;-41
2022/12/17 22:25:28;;;;;;;1.42;1.37;;;;;;;;;;1793327;78;26204;-38
2022/12/17 22:27:55;;;;;;;1.30;1.20;;;;;;;;;;1785196;78;26220;-37
2022/12/17 22:33:09;;;;;;;1.22;1.22;;;;;;;;;;1767359;79;26215;-37
2022/12/17 22:35:37;;;;;;;1.25;1.25;;;;;;;;;;1778382;78;26295;-39
2022/12/17 22:38:05;;;;;;;1.45;1.30;;;;;;;;;;1764424;79;26227;-53
2022/12/17 22:40:36;;;;;;;0.98;0.98;;;;;;;;;;1765261;79;26302;-39
2022/12/17 22:45:48;;;;;;;1.20;1.12;;;;;;;;;;1790169;79;26647;-40
2022/12/17 22:48:16;;;;;;;1.25;1.25;;;;;;;;;;1780875;79;26242;-35
2022/12/17 22:50:43;;;;;;;0.95;0.95;;;;;;;;;;1791366;79;26647;-37
2022/12/17 22:53:10;;;;;;;1.22;1.22;;;;;;;;;;1802115;79;26705;-37
2022/12/17 22:55:38;;;;;;;1.55;1.10;;;;;;;;;;1806619;79;27104;-40
2022/12/17 22:58:05;;;;;;;0.93;0.93;;;;;;;;;;1778346;79;26244;-36
2022/12/17 23:00:33;;;;;;;0.98;0.98;;;;;;;;;;1775813;79;26299;-43
2022/12/17 23:03:00;;;;;;;1.00;1.00;;;;;;;;;;1774792;79;26228;-39
2022/12/17 23:05:28;;;;;;;1.12;1.12;;;;;;;;;;1774672;79;26709;-40
2022/12/17 23:07:56;;;;;;;1.00;1.00;;;;;;;;;;1779171;79;26280;-39
2022/12/17 23:10:23;;;;;;;1.00;1.00;;;;;;;;;;1770526;79;26309;-36
2022/12/17 23:12:52;;;;;;;1.00;1.00;;;;;;;;;;1765482;79;26757;-40
2022/12/17 23:15:21;;;;;;;1.00;1.00;;;;;;;;;;1779677;79;26650;-37
2022/12/17 23:17:49;;;;;;;1.00;1.00;;;;;;;;;;1786500;79;26635;-42
2022/12/17 23:20:16;;;;;;;1.00;1.00;;;;;;;;;;1789622;79;26299;-35
2022/12/17 23:22:43;;;;;;;0.85;0.85;;;;;;;;;;1776241;79;26208;-40
2022/12/17 23:25:11;;;;;;;1.00;1.00;;;;;;;;;;1767369;79;26236;-37
2022/12/17 23:27:41;;;;;;;0.85;0.85;;;;;;;;;;1776385;79;26720;-35
2022/12/17 23:30:09;;;;;;;0.90;0.90;;;;;;;;;;1777555;79;26224;-38
2022/12/17 23:32:36;;;;;;;0.90;0.90;;;;;;;;;;1779153;79;26733;-37
2022/12/17 23:35:04;;;;;;;0.80;0.80;;;;;;;;;;1776227;79;26217;-49
2022/12/17 23:37:31;;;;;;;0.90;0.90;;;;;;;;;;1799552;78;26271;-35
2022/12/17 23:39:58;;;;;;;0.80;0.80;;;;;;;;;;1811638;78;26692;-35
2022/12/17 23:42:25;;;;;;;0.90;0.90;;;;;;;;;;1802884;78;27154;-37
2022/12/17 23:44:53;;;;;;;0.85;0.85;;;;;;;;;;1811565;78;26661;-41
2022/12/17 23:47:20;;;;;;;1.00;1.00;;;;;;;;;;1807835;78;26658;-35
2022/12/17 23:49:47;;;;;;;1.00;1.00;;;;;;;;;;1806382;78;26346;-41
2022/12/17 23:52:14;;;;;;;0.90;0.90;;;;;;;;;;1798702;78;26302;-40
2022/12/17 23:54:42;;;;;;;0.88;0.88;;;;;;;;;;1802217;78;26228;-44
2022/12/17 23:57:09;;;;;;;0.90;0.90;;;;;;;;;;1799257;78;26291;-40
2022/12/17 23:59:37;;;;;;;1.00;1.00;;;;;;;;;;1798302;78;26327;-37
